sensor_id;sensor_type;location;lat;lon;timestamp;P1;durP1;ratioP1;P2;durP2;ratioP2
6013;SDS011;3035;49.928;8.410;2023-03-29T00:02:00;3.33;;;1.50;;
6013;SDS011;3035;49.928;8.410;2023-03-29T00:04:29;2.33;;;1.20;;
6013;SDS011;3035;49.928;8.410;2023-03-29T00:06:58;2.63;;;1.43;;
6013;SDS011;3035;49.928;8.410;2023-03-29T00:09:27;1.63;;;1.33;;
6013;SDS011;3035;49.928;8.410;2023-03-29T00:11:57;1.50;;;1.40;;
6013;SDS011;3035;49.928;8.410;2023-03-29T00:14:26;1.20;;;1.10;;
6013;SDS011;3035;49.928;8.410;2023-03-29T00:16:55;2.70;;;1.47;;
6013;SDS011;3035;49.928;8.410;2023-03-29T00:19:24;1.53;;;1.30;;
6013;SDS011;3035;49.928;8.410;2023-03-29T00:21:54;2.80;;;1.50;;
6013;SDS011;3035;49.928;8.410;2023-03-29T00:24:23;1.83;;;1.40;;
6013;SDS011;3035;49.928;8.410;2023-03-29T00:26:52;2.60;;;1.67;;
6013;SDS011;3035;49.928;8.410;2023-03-29T00:29:22;2.27;;;1.50;;
6013;SDS011;3035;49.928;8.410;2023-03-29T00:31:51;2.57;;;1.83;;
6013;SDS011;3035;49.928;8.410;2023-03-29T00:34:22;1.77;;;1.40;;
6013;SDS011;3035;49.928;8.410;2023-03-29T00:36:51;2.13;;;1.40;;
6013;SDS011;3035;49.928;8.410;2023-03-29T00:39:20;2.50;;;1.50;;
6013;SDS011;3035;49.928;8.410;2023-03-29T00:41:49;1.80;;;1.63;;
6013;SDS011;3035;49.928;8.410;2023-03-29T00:47:06;2.90;;;1.57;;
6013;SDS011;3035;49.928;8.410;2023-03-29T00:49:35;2.20;;;1.50;;
6013;SDS011;3035;49.928;8.410;2023-03-29T00:52:04;3.23;;;1.63;;
6013;SDS011;3035;49.928;8.410;2023-03-29T00:54:34;2.20;;;1.67;;
6013;SDS011;3035;49.928;8.410;2023-03-29T00:57:03;3.23;;;1.50;;
6013;SDS011;3035;49.928;8.410;2023-03-29T00:59:33;3.40;;;1.83;;
6013;SDS011;3035;49.928;8.410;2023-03-29T01:02:02;3.03;;;2.10;;
6013;SDS011;3035;49.928;8.410;2023-03-29T01:04:33;5.77;;;2.97;;
6013;SDS011;3035;49.928;8.410;2023-03-29T01:07:15;5.90;;;3.17;;
6013;SDS011;3035;49.928;8.410;2023-03-29T01:09:49;4.80;;;2.70;;
6013;SDS011;3035;49.928;8.410;2023-03-29T01:12:20;8.57;;;4.27;;
6013;SDS011;3035;49.928;8.410;2023-03-29T01:14:53;9.87;;;4.63;;
6013;SDS011;3035;49.928;8.410;2023-03-29T01:17:22;14.67;;;3.83;;
6013;SDS011;3035;49.928;8.410;2023-03-29T01:19:56;4.20;;;2.73;;
6013;SDS011;3035;49.928;8.410;2023-03-29T01:25:22;8.23;;;3.27;;
6013;SDS011;3035;49.928;8.410;2023-03-29T01:27:52;1.87;;;1.70;;
6013;SDS011;3035;49.928;8.410;2023-03-29T01:30:25;5.13;;;2.00;;
6013;SDS011;3035;49.928;8.410;2023-03-29T01:33:01;1.73;;;1.60;;
6013;SDS011;3035;49.928;8.410;2023-03-29T01:35:33;3.07;;;1.60;;
6013;SDS011;3035;49.928;8.410;2023-03-29T01:38:14;3.43;;;2.10;;
6013;SDS011;3035;49.928;8.410;2023-03-29T01:40:46;2.27;;;1.90;;
6013;SDS011;3035;49.928;8.410;2023-03-29T01:43:21;2.13;;;1.90;;
6013;SDS011;3035;49.928;8.410;2023-03-29T01:46:13;1.77;;;1.67;;
6013;SDS011;3035;49.928;8.410;2023-03-29T01:48:49;2.00;;;1.80;;
6013;SDS011;3035;49.928;8.410;2023-03-29T01:51:24;2.17;;;1.87;;
6013;SDS011;3035;49.928;8.410;2023-03-29T01:53:55;4.27;;;2.00;;
6013;SDS011;3035;49.928;8.410;2023-03-29T01:56:40;4.43;;;1.93;;
6013;SDS011;3035;49.928;8.410;2023-03-29T01:59:11;3.90;;;2.30;;
6013;SDS011;3035;49.928;8.410;2023-03-29T02:01:41;8.10;;;1.80;;
6013;SDS011;3035;49.928;8.410;2023-03-29T02:04:09;3.77;;;2.50;;
6013;SDS011;3035;49.928;8.410;2023-03-29T02:06:38;2.87;;;2.20;;
6013;SDS011;3035;49.928;8.410;2023-03-29T02:09:07;2.47;;;2.27;;
6013;SDS011;3035;49.928;8.410;2023-03-29T02:11:37;2.27;;;2.07;;
6013;SDS011;3035;49.928;8.410;2023-03-29T02:14:07;3.30;;;1.73;;
6013;SDS011;3035;49.928;8.410;2023-03-29T02:16:36;4.03;;;2.13;;
6013;SDS011;3035;49.928;8.410;2023-03-29T02:19:05;6.50;;;1.93;;
6013;SDS011;3035;49.928;8.410;2023-03-29T02:21:38;2.30;;;2.10;;
6013;SDS011;3035;49.928;8.410;2023-03-29T02:24:11;3.30;;;1.70;;
6013;SDS011;3035;49.928;8.410;2023-03-29T02:26:40;1.70;;;1.60;;
6013;SDS011;3035;49.928;8.410;2023-03-29T02:29:10;2.00;;;1.80;;
6013;SDS011;3035;49.928;8.410;2023-03-29T02:31:40;2.23;;;2.03;;
6013;SDS011;3035;49.928;8.410;2023-03-29T02:34:19;4.83;;;2.00;;
6013;SDS011;3035;49.928;8.410;2023-03-29T02:36:49;2.00;;;1.90;;
6013;SDS011;3035;49.928;8.410;2023-03-29T02:39:21;6.30;;;2.03;;
6013;SDS011;3035;49.928;8.410;2023-03-29T02:41:50;4.70;;;2.33;;
6013;SDS011;3035;49.928;8.410;2023-03-29T02:44:20;3.80;;;2.30;;
6013;SDS011;3035;49.928;8.410;2023-03-29T02:46:50;2.27;;;1.90;;
6013;SDS011;3035;49.928;8.410;2023-03-29T02:49:18;3.13;;;2.30;;
6013;SDS011;3035;49.928;8.410;2023-03-29T02:51:48;5.23;;;1.80;;
6013;SDS011;3035;49.928;8.410;2023-03-29T02:54:18;4.20;;;2.00;;
6013;SDS011;3035;49.928;8.410;2023-03-29T02:56:47;2.17;;;1.97;;
6013;SDS011;3035;49.928;8.410;2023-03-29T02:59:16;2.50;;;2.07;;
6013;SDS011;3035;49.928;8.410;2023-03-29T03:01:46;2.60;;;1.87;;
6013;SDS011;3035;49.928;8.410;2023-03-29T03:04:15;4.10;;;1.60;;
6013;SDS011;3035;49.928;8.410;2023-03-29T03:06:45;2.37;;;1.87;;
6013;SDS011;3035;49.928;8.410;2023-03-29T03:09:14;7.83;;;2.17;;
6013;SDS011;3035;49.928;8.410;2023-03-29T03:11:43;3.90;;;2.47;;
6013;SDS011;3035;49.928;8.410;2023-03-29T03:14:13;2.00;;;1.70;;
6013;SDS011;3035;49.928;8.410;2023-03-29T03:16:42;3.03;;;1.87;;
6013;SDS011;3035;49.928;8.410;2023-03-29T03:19:11;3.17;;;2.03;;
6013;SDS011;3035;49.928;8.410;2023-03-29T03:21:40;2.13;;;1.90;;
6013;SDS011;3035;49.928;8.410;2023-03-29T03:24:10;2.90;;;2.40;;
6013;SDS011;3035;49.928;8.410;2023-03-29T03:26:39;2.53;;;2.33;;
6013;SDS011;3035;49.928;8.410;2023-03-29T03:29:08;2.10;;;1.83;;
6013;SDS011;3035;49.928;8.410;2023-03-29T03:31:38;4.50;;;2.33;;
6013;SDS011;3035;49.928;8.410;2023-03-29T03:34:08;2.27;;;2.07;;
6013;SDS011;3035;49.928;8.410;2023-03-29T03:36:37;4.53;;;2.30;;
6013;SDS011;3035;49.928;8.410;2023-03-29T03:39:06;3.67;;;2.00;;
6013;SDS011;3035;49.928;8.410;2023-03-29T03:41:36;2.80;;;2.00;;
6013;SDS011;3035;49.928;8.410;2023-03-29T03:44:05;4.20;;;2.17;;
6013;SDS011;3035;49.928;8.410;2023-03-29T03:46:34;5.43;;;2.00;;
6013;SDS011;3035;49.928;8.410;2023-03-29T03:49:03;3.97;;;2.00;;
6013;SDS011;3035;49.928;8.410;2023-03-29T03:51:33;2.20;;;2.00;;
6013;SDS011;3035;49.928;8.410;2023-03-29T03:54:02;4.83;;;2.00;;
6013;SDS011;3035;49.928;8.410;2023-03-29T03:56:31;3.70;;;1.80;;
6013;SDS011;3035;49.928;8.410;2023-03-29T03:59:01;9.60;;;2.43;;
6013;SDS011;3035;49.928;8.410;2023-03-29T04:01:30;6.23;;;2.10;;
6013;SDS011;3035;49.928;8.410;2023-03-29T04:03:59;5.20;;;2.90;;
6013;SDS011;3035;49.928;8.410;2023-03-29T04:06:29;7.87;;;3.30;;
6013;SDS011;3035;49.928;8.410;2023-03-29T04:08:58;2.70;;;2.33;;
6013;SDS011;3035;49.928;8.410;2023-03-29T04:11:27;2.27;;;1.93;;
6013;SDS011;3035;49.928;8.410;2023-03-29T04:13:56;3.13;;;2.57;;
6013;SDS011;3035;49.928;8.410;2023-03-29T04:16:26;3.93;;;2.27;;
6013;SDS011;3035;49.928;8.410;2023-03-29T04:18:55;3.20;;;2.33;;
6013;SDS011;3035;49.928;8.410;2023-03-29T04:21:24;4.40;;;2.30;;
6013;SDS011;3035;49.928;8.410;2023-03-29T04:23:53;4.67;;;2.47;;
6013;SDS011;3035;49.928;8.410;2023-03-29T04:26:23;3.57;;;2.33;;
6013;SDS011;3035;49.928;8.410;2023-03-29T04:28:52;5.70;;;2.37;;
6013;SDS011;3035;49.928;8.410;2023-03-29T04:31:23;4.27;;;1.80;;
6013;SDS011;3035;49.928;8.410;2023-03-29T04:33:52;4.10;;;2.10;;
6013;SDS011;3035;49.928;8.410;2023-03-29T04:36:21;6.90;;;2.00;;
6013;SDS011;3035;49.928;8.410;2023-03-29T04:38:50;2.87;;;2.47;;
6013;SDS011;3035;49.928;8.410;2023-03-29T04:41:20;4.80;;;2.50;;
6013;SDS011;3035;49.928;8.410;2023-03-29T04:43:49;3.30;;;2.20;;
6013;SDS011;3035;49.928;8.410;2023-03-29T04:46:18;4.43;;;2.77;;
6013;SDS011;3035;49.928;8.410;2023-03-29T04:48:48;9.50;;;2.47;;
6013;SDS011;3035;49.928;8.410;2023-03-29T04:51:17;3.93;;;2.40;;
6013;SDS011;3035;49.928;8.410;2023-03-29T04:53:47;4.80;;;2.27;;
6013;SDS011;3035;49.928;8.410;2023-03-29T04:56:16;2.67;;;1.77;;
6013;SDS011;3035;49.928;8.410;2023-03-29T04:58:45;2.83;;;2.27;;
6013;SDS011;3035;49.928;8.410;2023-03-29T05:01:14;6.93;;;2.50;;
6013;SDS011;3035;49.928;8.410;2023-03-29T05:03:43;4.80;;;2.40;;
6013;SDS011;3035;49.928;8.410;2023-03-29T05:06:13;5.60;;;2.70;;
6013;SDS011;3035;49.928;8.410;2023-03-29T05:08:42;3.40;;;2.53;;
6013;SDS011;3035;49.928;8.410;2023-03-29T05:11:11;3.20;;;2.53;;
6013;SDS011;3035;49.928;8.410;2023-03-29T05:13:41;4.47;;;1.80;;
6013;SDS011;3035;49.928;8.410;2023-03-29T05:16:10;6.33;;;2.50;;
6013;SDS011;3035;49.928;8.410;2023-03-29T05:18:39;3.83;;;2.10;;
6013;SDS011;3035;49.928;8.410;2023-03-29T05:21:08;3.47;;;2.07;;
6013;SDS011;3035;49.928;8.410;2023-03-29T05:23:38;3.10;;;2.60;;
6013;SDS011;3035;49.928;8.410;2023-03-29T05:26:07;4.37;;;2.20;;
6013;SDS011;3035;49.928;8.410;2023-03-29T05:28:36;5.93;;;2.77;;
6013;SDS011;3035;49.928;8.410;2023-03-29T05:31:06;6.07;;;3.03;;
6013;SDS011;3035;49.928;8.410;2023-03-29T05:33:35;5.43;;;2.97;;
6013;SDS011;3035;49.928;8.410;2023-03-29T05:36:05;4.50;;;3.20;;
6013;SDS011;3035;49.928;8.410;2023-03-29T05:38:35;3.97;;;2.90;;
6013;SDS011;3035;49.928;8.410;2023-03-29T05:41:04;3.23;;;2.93;;
6013;SDS011;3035;49.928;8.410;2023-03-29T05:43:33;5.30;;;3.30;;
6013;SDS011;3035;49.928;8.410;2023-03-29T05:46:03;4.20;;;3.30;;
6013;SDS011;3035;49.928;8.410;2023-03-29T05:48:32;5.97;;;3.30;;
6013;SDS011;3035;49.928;8.410;2023-03-29T05:51:02;6.83;;;3.40;;
6013;SDS011;3035;49.928;8.410;2023-03-29T05:53:31;4.30;;;3.00;;
6013;SDS011;3035;49.928;8.410;2023-03-29T05:56:00;3.47;;;2.87;;
6013;SDS011;3035;49.928;8.410;2023-03-29T05:58:30;5.10;;;3.13;;
6013;SDS011;3035;49.928;8.410;2023-03-29T06:00:59;7.70;;;4.57;;
6013;SDS011;3035;49.928;8.410;2023-03-29T06:03:28;6.67;;;4.00;;
6013;SDS011;3035;49.928;8.410;2023-03-29T06:05:59;14.30;;;3.50;;
6013;SDS011;3035;49.928;8.410;2023-03-29T06:08:27;4.47;;;3.00;;
6013;SDS011;3035;49.928;8.410;2023-03-29T06:10:58;6.50;;;3.53;;
6013;SDS011;3035;49.928;8.410;2023-03-29T06:13:27;5.73;;;2.80;;
6013;SDS011;3035;49.928;8.410;2023-03-29T06:15:56;3.40;;;2.83;;
6013;SDS011;3035;49.928;8.410;2023-03-29T06:18:25;5.70;;;3.37;;
6013;SDS011;3035;49.928;8.410;2023-03-29T06:20:55;5.00;;;3.40;;
6013;SDS011;3035;49.928;8.410;2023-03-29T06:23:24;12.67;;;5.77;;
6013;SDS011;3035;49.928;8.410;2023-03-29T06:25:53;4.87;;;3.50;;
6013;SDS011;3035;49.928;8.410;2023-03-29T06:28:23;6.53;;;3.53;;
6013;SDS011;3035;49.928;8.410;2023-03-29T06:30:52;8.63;;;3.30;;
6013;SDS011;3035;49.928;8.410;2023-03-29T06:33:21;5.90;;;4.00;;
6013;SDS011;3035;49.928;8.410;2023-03-29T06:35:50;4.47;;;3.27;;
6013;SDS011;3035;49.928;8.410;2023-03-29T06:38:20;4.53;;;3.53;;
6013;SDS011;3035;49.928;8.410;2023-03-29T06:40:49;5.43;;;3.30;;
6013;SDS011;3035;49.928;8.410;2023-03-29T06:43:18;6.40;;;3.90;;
6013;SDS011;3035;49.928;8.410;2023-03-29T06:45:48;3.60;;;3.03;;
6013;SDS011;3035;49.928;8.410;2023-03-29T06:48:17;3.83;;;2.67;;
6013;SDS011;3035;49.928;8.410;2023-03-29T06:50:47;2.87;;;2.63;;
6013;SDS011;3035;49.928;8.410;2023-03-29T06:53:16;2.90;;;2.70;;
6013;SDS011;3035;49.928;8.410;2023-03-29T06:55:45;4.10;;;3.20;;
6013;SDS011;3035;49.928;8.410;2023-03-29T06:58:14;3.70;;;2.60;;
6013;SDS011;3035;49.928;8.410;2023-03-29T07:00:44;2.87;;;2.63;;
6013;SDS011;3035;49.928;8.410;2023-03-29T07:03:13;4.23;;;3.83;;
6013;SDS011;3035;49.928;8.410;2023-03-29T07:05:42;3.10;;;2.87;;
6013;SDS011;3035;49.928;8.410;2023-03-29T07:08:11;4.23;;;2.70;;
6013;SDS011;3035;49.928;8.410;2023-03-29T07:10:42;3.87;;;3.27;;
6013;SDS011;3035;49.928;8.410;2023-03-29T07:13:10;3.37;;;2.97;;
6013;SDS011;3035;49.928;8.410;2023-03-29T07:15:40;6.80;;;2.30;;
6013;SDS011;3035;49.928;8.410;2023-03-29T07:18:09;3.87;;;2.10;;
6013;SDS011;3035;49.928;8.410;2023-03-29T07:20:38;2.70;;;2.50;;
6013;SDS011;3035;49.928;8.410;2023-03-29T07:23:09;4.80;;;3.57;;
6013;SDS011;3035;49.928;8.410;2023-03-29T07:25:37;4.90;;;2.70;;
6013;SDS011;3035;49.928;8.410;2023-03-29T07:28:06;6.70;;;3.40;;
6013;SDS011;3035;49.928;8.410;2023-03-29T07:30:40;4.83;;;3.87;;
6013;SDS011;3035;49.928;8.410;2023-03-29T07:33:10;4.60;;;2.77;;
6013;SDS011;3035;49.928;8.410;2023-03-29T07:35:39;5.80;;;3.30;;
6013;SDS011;3035;49.928;8.410;2023-03-29T07:38:08;5.03;;;2.67;;
6013;SDS011;3035;49.928;8.410;2023-03-29T07:40:39;5.83;;;2.83;;
6013;SDS011;3035;49.928;8.410;2023-03-29T07:43:08;8.07;;;2.60;;
6013;SDS011;3035;49.928;8.410;2023-03-29T07:45:37;3.43;;;2.53;;
6013;SDS011;3035;49.928;8.410;2023-03-29T07:48:07;3.30;;;2.20;;
6013;SDS011;3035;49.928;8.410;2023-03-29T07:50:36;4.90;;;2.57;;
6013;SDS011;3035;49.928;8.410;2023-03-29T07:53:05;3.57;;;2.57;;
6013;SDS011;3035;49.928;8.410;2023-03-29T07:55:35;5.40;;;2.70;;
6013;SDS011;3035;49.928;8.410;2023-03-29T07:58:04;4.33;;;2.73;;
6013;SDS011;3035;49.928;8.410;2023-03-29T08:00:33;8.80;;;3.03;;
6013;SDS011;3035;49.928;8.410;2023-03-29T08:03:02;23.27;;;9.20;;
6013;SDS011;3035;49.928;8.410;2023-03-29T08:05:32;5.07;;;3.33;;
6013;SDS011;3035;49.928;8.410;2023-03-29T08:08:01;5.70;;;3.37;;
6013;SDS011;3035;49.928;8.410;2023-03-29T08:10:30;8.83;;;2.90;;
6013;SDS011;3035;49.928;8.410;2023-03-29T08:13:02;4.17;;;2.27;;
6013;SDS011;3035;49.928;8.410;2023-03-29T08:15:29;3.00;;;2.40;;
6013;SDS011;3035;49.928;8.410;2023-03-29T08:17:59;3.57;;;2.60;;
6013;SDS011;3035;49.928;8.410;2023-03-29T08:20:28;2.90;;;2.30;;
6013;SDS011;3035;49.928;8.410;2023-03-29T08:22:57;6.33;;;2.70;;
6013;SDS011;3035;49.928;8.410;2023-03-29T08:25:27;3.47;;;2.63;;
6013;SDS011;3035;49.928;8.410;2023-03-29T08:27:56;2.87;;;2.67;;
6013;SDS011;3035;49.928;8.410;2023-03-29T08:30:26;6.33;;;3.27;;
6013;SDS011;3035;49.928;8.410;2023-03-29T08:32:55;5.73;;;3.23;;
6013;SDS011;3035;49.928;8.410;2023-03-29T08:35:24;4.47;;;2.60;;
6013;SDS011;3035;49.928;8.410;2023-03-29T08:37:53;3.43;;;2.30;;
6013;SDS011;3035;49.928;8.410;2023-03-29T08:40:23;5.23;;;3.57;;
6013;SDS011;3035;49.928;8.410;2023-03-29T08:43:03;4.77;;;2.93;;
6013;SDS011;3035;49.928;8.410;2023-03-29T08:45:45;3.37;;;2.60;;
6013;SDS011;3035;49.928;8.410;2023-03-29T08:48:33;4.83;;;2.53;;
6013;SDS011;3035;49.928;8.410;2023-03-29T08:51:10;3.20;;;2.83;;
6013;SDS011;3035;49.928;8.410;2023-03-29T08:53:49;3.20;;;2.70;;
6013;SDS011;3035;49.928;8.410;2023-03-29T08:56:20;4.73;;;2.80;;
6013;SDS011;3035;49.928;8.410;2023-03-29T08:58:48;2.67;;;2.47;;
6013;SDS011;3035;49.928;8.410;2023-03-29T09:01:17;7.07;;;4.07;;
6013;SDS011;3035;49.928;8.410;2023-03-29T09:03:47;7.80;;;2.70;;
6013;SDS011;3035;49.928;8.410;2023-03-29T09:06:18;5.97;;;3.23;;
6013;SDS011;3035;49.928;8.410;2023-03-29T09:08:47;6.33;;;2.97;;
6013;SDS011;3035;49.928;8.410;2023-03-29T09:14:12;8.53;;;4.97;;
6013;SDS011;3035;49.928;8.410;2023-03-29T09:19:30;20.30;;;9.97;;
6013;SDS011;3035;49.928;8.410;2023-03-29T09:22:03;15.60;;;8.30;;
6013;SDS011;3035;49.928;8.410;2023-03-29T09:24:52;21.67;;;10.77;;
6013;SDS011;3035;49.928;8.410;2023-03-29T09:27:26;15.00;;;8.10;;
6013;SDS011;3035;49.928;8.410;2023-03-29T09:30:01;4.20;;;3.30;;
6013;SDS011;3035;49.928;8.410;2023-03-29T09:35:39;3.03;;;2.70;;
6013;SDS011;3035;49.928;8.410;2023-03-29T09:38:10;7.20;;;2.57;;
6013;SDS011;3035;49.928;8.410;2023-03-29T09:40:40;5.83;;;3.10;;
6013;SDS011;3035;49.928;8.410;2023-03-29T09:43:11;4.27;;;3.07;;
6013;SDS011;3035;49.928;8.410;2023-03-29T09:45:40;3.73;;;2.63;;
6013;SDS011;3035;49.928;8.410;2023-03-29T09:48:12;5.10;;;3.30;;
6013;SDS011;3035;49.928;8.410;2023-03-29T09:50:42;3.47;;;2.83;;
6013;SDS011;3035;49.928;8.410;2023-03-29T09:53:12;6.90;;;3.00;;
6013;SDS011;3035;49.928;8.410;2023-03-29T09:55:44;7.40;;;3.80;;
6013;SDS011;3035;49.928;8.410;2023-03-29T09:58:15;10.83;;;3.90;;
6013;SDS011;3035;49.928;8.410;2023-03-29T10:00:44;5.70;;;3.67;;
6013;SDS011;3035;49.928;8.410;2023-03-29T10:03:18;5.70;;;3.43;;
6013;SDS011;3035;49.928;8.410;2023-03-29T10:05:49;4.43;;;3.43;;
6013;SDS011;3035;49.928;8.410;2023-03-29T10:08:21;8.33;;;3.37;;
6013;SDS011;3035;49.928;8.410;2023-03-29T10:10:48;3.80;;;3.00;;
6013;SDS011;3035;49.928;8.410;2023-03-29T10:13:19;4.33;;;3.40;;
6013;SDS011;3035;49.928;8.410;2023-03-29T10:16:03;4.90;;;3.30;;
6013;SDS011;3035;49.928;8.410;2023-03-29T10:18:38;4.20;;;2.80;;
6013;SDS011;3035;49.928;8.410;2023-03-29T10:21:08;5.67;;;3.33;;
6013;SDS011;3035;49.928;8.410;2023-03-29T10:23:37;9.97;;;4.30;;
6013;SDS011;3035;49.928;8.410;2023-03-29T10:26:08;4.60;;;3.77;;
6013;SDS011;3035;49.928;8.410;2023-03-29T10:28:35;12.13;;;3.93;;
6013;SDS011;3035;49.928;8.410;2023-03-29T10:31:14;5.83;;;3.37;;
6013;SDS011;3035;49.928;8.410;2023-03-29T10:33:38;5.87;;;2.93;;
6013;SDS011;3035;49.928;8.410;2023-03-29T10:36:08;5.27;;;3.20;;
6013;SDS011;3035;49.928;8.410;2023-03-29T10:38:37;4.80;;;3.70;;
6013;SDS011;3035;49.928;8.410;2023-03-29T10:41:08;7.57;;;4.30;;
6013;SDS011;3035;49.928;8.410;2023-03-29T10:43:41;7.60;;;4.60;;
6013;SDS011;3035;49.928;8.410;2023-03-29T10:46:19;5.50;;;3.00;;
6013;SDS011;3035;49.928;8.410;2023-03-29T10:48:50;5.57;;;3.20;;
6013;SDS011;3035;49.928;8.410;2023-03-29T10:51:18;4.27;;;2.90;;
6013;SDS011;3035;49.928;8.410;2023-03-29T10:53:47;4.83;;;3.83;;
6013;SDS011;3035;49.928;8.410;2023-03-29T10:56:23;7.67;;;4.23;;
6013;SDS011;3035;49.928;8.410;2023-03-29T11:02:04;4.57;;;3.40;;
6013;SDS011;3035;49.928;8.410;2023-03-29T11:04:40;6.07;;;3.60;;
6013;SDS011;3035;49.928;8.410;2023-03-29T11:10:22;10.70;;;3.70;;
6013;SDS011;3035;49.928;8.410;2023-03-29T11:12:56;7.77;;;3.40;;
6013;SDS011;3035;49.928;8.410;2023-03-29T11:15:45;6.53;;;3.90;;
6013;SDS011;3035;49.928;8.410;2023-03-29T11:18:40;7.33;;;3.60;;
6013;SDS011;3035;49.928;8.410;2023-03-29T11:21:38;6.80;;;4.27;;
6013;SDS011;3035;49.928;8.410;2023-03-29T11:24:46;7.43;;;3.50;;
6013;SDS011;3035;49.928;8.410;2023-03-29T11:27:27;8.93;;;3.33;;
6013;SDS011;3035;49.928;8.410;2023-03-29T11:30:21;6.77;;;4.00;;
6013;SDS011;3035;49.928;8.410;2023-03-29T11:33:15;7.53;;;3.73;;
6013;SDS011;3035;49.928;8.410;2023-03-29T11:36:06;4.90;;;3.83;;
6013;SDS011;3035;49.928;8.410;2023-03-29T11:38:59;6.27;;;3.50;;
6013;SDS011;3035;49.928;8.410;2023-03-29T11:41:40;5.87;;;3.43;;
6013;SDS011;3035;49.928;8.410;2023-03-29T11:44:10;4.50;;;3.53;;
6013;SDS011;3035;49.928;8.410;2023-03-29T11:46:46;7.37;;;4.37;;
6013;SDS011;3035;49.928;8.410;2023-03-29T11:49:43;4.00;;;3.27;;
6013;SDS011;3035;49.928;8.410;2023-03-29T11:52:15;6.90;;;3.47;;
6013;SDS011;3035;49.928;8.410;2023-03-29T11:54:47;12.90;;;6.37;;
6013;SDS011;3035;49.928;8.410;2023-03-29T11:57:24;6.93;;;3.53;;
6013;SDS011;3035;49.928;8.410;2023-03-29T11:59:56;5.30;;;3.47;;
6013;SDS011;3035;49.928;8.410;2023-03-29T12:02:28;6.73;;;3.23;;
6013;SDS011;3035;49.928;8.410;2023-03-29T12:05:00;4.93;;;3.50;;
6013;SDS011;3035;49.928;8.410;2023-03-29T12:07:31;4.63;;;3.17;;
6013;SDS011;3035;49.928;8.410;2023-03-29T12:10:00;14.20;;;4.20;;
6013;SDS011;3035;49.928;8.410;2023-03-29T12:15:23;9.50;;;4.10;;
6013;SDS011;3035;49.928;8.410;2023-03-29T12:18:01;5.83;;;3.47;;
6013;SDS011;3035;49.928;8.410;2023-03-29T12:20:31;9.97;;;4.57;;
6013;SDS011;3035;49.928;8.410;2023-03-29T12:22:59;6.83;;;4.53;;
6013;SDS011;3035;49.928;8.410;2023-03-29T12:25:30;8.77;;;4.90;;
6013;SDS011;3035;49.928;8.410;2023-03-29T12:28:08;7.30;;;3.30;;
6013;SDS011;3035;49.928;8.410;2023-03-29T12:30:41;4.73;;;3.30;;
6013;SDS011;3035;49.928;8.410;2023-03-29T12:39:23;8.63;;;4.63;;
6013;SDS011;3035;49.928;8.410;2023-03-29T12:41:52;4.80;;;3.60;;
6013;SDS011;3035;49.928;8.410;2023-03-29T12:44:21;7.90;;;3.30;;
6013;SDS011;3035;49.928;8.410;2023-03-29T12:46:52;14.83;;;3.27;;
6013;SDS011;3035;49.928;8.410;2023-03-29T12:49:26;4.10;;;3.13;;
6013;SDS011;3035;49.928;8.410;2023-03-29T12:52:11;7.80;;;3.70;;
6013;SDS011;3035;49.928;8.410;2023-03-29T12:54:34;3.83;;;3.43;;
6013;SDS011;3035;49.928;8.410;2023-03-29T12:59:46;9.90;;;4.10;;
6013;SDS011;3035;49.928;8.410;2023-03-29T13:04:54;5.50;;;3.20;;
6013;SDS011;3035;49.928;8.410;2023-03-29T13:07:31;5.00;;;3.80;;
6013;SDS011;3035;49.928;8.410;2023-03-29T13:10:02;7.97;;;4.00;;
6013;SDS011;3035;49.928;8.410;2023-03-29T13:12:37;4.57;;;3.37;;
6013;SDS011;3035;49.928;8.410;2023-03-29T13:15:20;5.67;;;3.00;;
6013;SDS011;3035;49.928;8.410;2023-03-29T13:17:58;5.57;;;3.80;;
6013;SDS011;3035;49.928;8.410;2023-03-29T13:20:46;5.83;;;3.10;;
6013;SDS011;3035;49.928;8.410;2023-03-29T13:23:34;6.23;;;2.43;;
6013;SDS011;3035;49.928;8.410;2023-03-29T13:29:14;8.83;;;3.03;;
6013;SDS011;3035;49.928;8.410;2023-03-29T13:31:53;4.23;;;3.00;;
6013;SDS011;3035;49.928;8.410;2023-03-29T13:34:31;7.07;;;2.93;;
6013;SDS011;3035;49.928;8.410;2023-03-29T13:37:01;4.73;;;2.50;;
6013;SDS011;3035;49.928;8.410;2023-03-29T13:39:47;6.50;;;3.47;;
6013;SDS011;3035;49.928;8.410;2023-03-29T13:42:19;12.33;;;3.80;;
6013;SDS011;3035;49.928;8.410;2023-03-29T13:44:48;5.70;;;2.80;;
6013;SDS011;3035;49.928;8.410;2023-03-29T13:50:05;5.10;;;2.80;;
6013;SDS011;3035;49.928;8.410;2023-03-29T13:52:35;5.07;;;3.13;;
6013;SDS011;3035;49.928;8.410;2023-03-29T13:55:12;6.93;;;2.80;;
6013;SDS011;3035;49.928;8.410;2023-03-29T13:57:43;7.73;;;2.80;;
6013;SDS011;3035;49.928;8.410;2023-03-29T14:00:16;11.33;;;3.03;;
6013;SDS011;3035;49.928;8.410;2023-03-29T14:02:54;4.47;;;2.60;;
6013;SDS011;3035;49.928;8.410;2023-03-29T14:05:27;6.43;;;3.10;;
6013;SDS011;3035;49.928;8.410;2023-03-29T14:07:56;5.27;;;2.87;;
6013;SDS011;3035;49.928;8.410;2023-03-29T14:10:26;5.57;;;3.17;;
6013;SDS011;3035;49.928;8.410;2023-03-29T14:12:55;5.47;;;2.50;;
6013;SDS011;3035;49.928;8.410;2023-03-29T14:15:26;6.50;;;3.60;;
6013;SDS011;3035;49.928;8.410;2023-03-29T14:17:55;5.33;;;2.60;;
6013;SDS011;3035;49.928;8.410;2023-03-29T14:20:23;6.70;;;2.93;;
6013;SDS011;3035;49.928;8.410;2023-03-29T14:22:52;4.90;;;2.50;;
6013;SDS011;3035;49.928;8.410;2023-03-29T14:25:22;8.63;;;2.70;;
6013;SDS011;3035;49.928;8.410;2023-03-29T14:27:51;6.87;;;3.10;;
6013;SDS011;3035;49.928;8.410;2023-03-29T14:30:23;6.33;;;2.60;;
6013;SDS011;3035;49.928;8.410;2023-03-29T14:32:52;5.87;;;2.23;;
6013;SDS011;3035;49.928;8.410;2023-03-29T14:35:30;3.30;;;2.20;;
6013;SDS011;3035;49.928;8.410;2023-03-29T14:38:00;3.90;;;2.80;;
6013;SDS011;3035;49.928;8.410;2023-03-29T14:40:29;3.90;;;2.50;;
6013;SDS011;3035;49.928;8.410;2023-03-29T14:42:59;4.50;;;2.50;;
6013;SDS011;3035;49.928;8.410;2023-03-29T14:45:27;9.70;;;2.47;;
6013;SDS011;3035;49.928;8.410;2023-03-29T14:47:57;4.00;;;2.53;;
6013;SDS011;3035;49.928;8.410;2023-03-29T14:50:28;5.50;;;2.77;;
6013;SDS011;3035;49.928;8.410;2023-03-29T14:52:55;5.67;;;3.17;;
6013;SDS011;3035;49.928;8.410;2023-03-29T14:55:24;3.90;;;2.87;;
6013;SDS011;3035;49.928;8.410;2023-03-29T14:57:54;5.80;;;2.97;;
6013;SDS011;3035;49.928;8.410;2023-03-29T15:00:27;6.33;;;3.00;;
6013;SDS011;3035;49.928;8.410;2023-03-29T15:02:58;8.87;;;3.50;;
6013;SDS011;3035;49.928;8.410;2023-03-29T15:05:33;6.20;;;3.10;;
6013;SDS011;3035;49.928;8.410;2023-03-29T15:08:01;3.50;;;2.60;;
6013;SDS011;3035;49.928;8.410;2023-03-29T15:10:30;3.97;;;2.40;;
6013;SDS011;3035;49.928;8.410;2023-03-29T15:13:00;6.90;;;2.67;;
6013;SDS011;3035;49.928;8.410;2023-03-29T15:15:30;3.60;;;2.70;;
6013;SDS011;3035;49.928;8.410;2023-03-29T15:17:59;2.90;;;2.20;;
6013;SDS011;3035;49.928;8.410;2023-03-29T15:20:30;4.10;;;2.23;;
6013;SDS011;3035;49.928;8.410;2023-03-29T15:25:53;5.90;;;2.53;;
6013;SDS011;3035;49.928;8.410;2023-03-29T15:28:24;2.80;;;2.20;;
6013;SDS011;3035;49.928;8.410;2023-03-29T15:30:57;7.03;;;2.70;;
6013;SDS011;3035;49.928;8.410;2023-03-29T15:33:30;6.70;;;2.73;;
6013;SDS011;3035;49.928;8.410;2023-03-29T15:36:03;4.50;;;2.53;;
6013;SDS011;3035;49.928;8.410;2023-03-29T15:38:34;3.47;;;2.47;;
6013;SDS011;3035;49.928;8.410;2023-03-29T15:41:03;3.77;;;2.37;;
6013;SDS011;3035;49.928;8.410;2023-03-29T15:43:32;7.20;;;2.90;;
6013;SDS011;3035;49.928;8.410;2023-03-29T15:46:01;5.87;;;2.20;;
6013;SDS011;3035;49.928;8.410;2023-03-29T15:48:30;12.70;;;2.07;;
6013;SDS011;3035;49.928;8.410;2023-03-29T15:50:59;4.40;;;2.00;;
6013;SDS011;3035;49.928;8.410;2023-03-29T15:53:29;3.77;;;2.33;;
6013;SDS011;3035;49.928;8.410;2023-03-29T15:55:58;5.93;;;2.37;;
6013;SDS011;3035;49.928;8.410;2023-03-29T15:58:28;6.23;;;2.20;;
6013;SDS011;3035;49.928;8.410;2023-03-29T16:00:58;2.93;;;2.60;;
6013;SDS011;3035;49.928;8.410;2023-03-29T16:03:39;5.27;;;2.83;;
6013;SDS011;3035;49.928;8.410;2023-03-29T16:06:09;7.30;;;2.87;;
6013;SDS011;3035;49.928;8.410;2023-03-29T16:08:38;9.30;;;3.40;;
6013;SDS011;3035;49.928;8.410;2023-03-29T16:11:07;6.33;;;3.47;;
6013;SDS011;3035;49.928;8.410;2023-03-29T16:13:36;3.00;;;2.60;;
6013;SDS011;3035;49.928;8.410;2023-03-29T16:16:07;5.87;;;2.80;;
6013;SDS011;3035;49.928;8.410;2023-03-29T16:18:37;6.20;;;3.10;;
6013;SDS011;3035;49.928;8.410;2023-03-29T16:21:08;9.53;;;6.00;;
6013;SDS011;3035;49.928;8.410;2023-03-29T16:23:38;15.20;;;5.30;;
6013;SDS011;3035;49.928;8.410;2023-03-29T16:26:09;6.57;;;3.47;;